sensor_id;sensor_type;location;lat;lon;timestamp;pressure;altitude;pressure_sealevel;temperature;humidity
10700;BME280;5401;41.986;21.452;2023-01-31T00:01:12;98257.28;;;3.03;74.81
10700;BME280;5401;41.986;21.452;2023-01-31T00:03:40;98248.38;;;3.04;74.10
10700;BME280;5401;41.986;21.452;2023-01-31T00:06:11;98241.09;;;3.06;73.92
10700;BME280;5401;41.986;21.452;2023-01-31T00:08:39;98243.22;;;3.10;74.01
10700;BME280;5401;41.986;21.452;2023-01-31T00:11:09;98245.53;;;3.13;74.75
10700;BME280;5401;41.986;21.452;2023-01-31T00:13:36;98248.00;;;3.15;74.53
10700;BME280;5401;41.986;21.452;2023-01-31T00:16:05;98240.56;;;3.18;74.83
10700;BME280;5401;41.986;21.452;2023-01-31T00:18:34;98231.81;;;3.18;74.54
10700;BME280;5401;41.986;21.452;2023-01-31T00:21:07;98205.03;;;3.13;74.49
10700;BME280;5401;41.986;21.452;2023-01-31T00:23:35;98184.25;;;3.02;73.95
10700;BME280;5401;41.986;21.452;2023-01-31T00:26:08;98203.41;;;3.12;73.68
10700;BME280;5401;41.986;21.452;2023-01-31T00:28:35;98192.84;;;3.04;73.88
10700;BME280;5401;41.986;21.452;2023-01-31T00:31:03;98200.00;;;2.87;73.63
10700;BME280;5401;41.986;21.452;2023-01-31T00:33:35;98208.44;;;2.75;74.21
10700;BME280;5401;41.986;21.452;2023-01-31T00:36:04;98215.72;;;2.57;74.33
10700;BME280;5401;41.986;21.452;2023-01-31T00:38:32;98213.09;;;2.34;74.86
10700;BME280;5401;41.986;21.452;2023-01-31T00:41:00;98203.19;;;2.28;75.09
10700;BME280;5401;41.986;21.452;2023-01-31T00:43:29;98194.94;;;2.15;74.85
10700;BME280;5401;41.986;21.452;2023-01-31T00:45:56;98215.06;;;2.08;75.21
10700;BME280;5401;41.986;21.452;2023-01-31T00:48:24;98204.81;;;1.97;75.75
10700;BME280;5401;41.986;21.452;2023-01-31T00:50:53;98205.16;;;2.02;75.41
10700;BME280;5401;41.986;21.452;2023-01-31T00:53:21;98213.41;;;2.15;75.63
10700;BME280;5401;41.986;21.452;2023-01-31T00:55:49;98207.47;;;2.21;76.07
10700;BME280;5401;41.986;21.452;2023-01-31T00:58:16;98223.00;;;2.40;76.03
10700;BME280;5401;41.986;21.452;2023-01-31T01:00:44;98223.66;;;2.49;75.63
10700;BME280;5401;41.986;21.452;2023-01-31T01:03:12;98206.63;;;2.52;76.32
10700;BME280;5401;41.986;21.452;2023-01-31T01:05:40;98216.69;;;2.64;75.96
10700;BME280;5401;41.986;21.452;2023-01-31T01:08:11;98226.44;;;2.72;76.32
10700;BME280;5401;41.986;21.452;2023-01-31T01:10:39;98194.75;;;2.64;75.80
10700;BME280;5401;41.986;21.452;2023-01-31T01:13:06;98220.50;;;2.78;75.63
10700;BME280;5401;41.986;21.452;2023-01-31T01:15:36;98204.81;;;2.68;76.31
10700;BME280;5401;41.986;21.452;2023-01-31T01:18:06;98222.63;;;2.82;75.31
10700;BME280;5401;41.986;21.452;2023-01-31T01:20:34;98228.06;;;2.81;75.76
10700;BME280;5401;41.986;21.452;2023-01-31T01:23:02;98212.06;;;2.82;76.03
10700;BME280;5401;41.986;21.452;2023-01-31T01:25:40;98220.63;;;2.84;76.13
10700;BME280;5401;41.986;21.452;2023-01-31T01:28:08;98202.66;;;2.72;75.90
10700;BME280;5401;41.986;21.452;2023-01-31T01:30:36;98207.59;;;2.83;75.63
10700;BME280;5401;41.986;21.452;2023-01-31T01:33:04;98217.03;;;2.85;76.00
10700;BME280;5401;41.986;21.452;2023-01-31T01:35:32;98202.78;;;2.86;76.03
10700;BME280;5401;41.986;21.452;2023-01-31T01:37:59;98209.09;;;2.85;76.24
10700;BME280;5401;41.986;21.452;2023-01-31T01:40:35;98217.31;;;2.90;76.22
10700;BME280;5401;41.986;21.452;2023-01-31T01:43:03;98213.88;;;2.89;75.91
10700;BME280;5401;41.986;21.452;2023-01-31T01:45:31;98237.16;;;2.94;76.29
10700;BME280;5401;41.986;21.452;2023-01-31T01:48:01;98273.00;;;2.96;75.48
10700;BME280;5401;41.986;21.452;2023-01-31T01:50:32;98266.88;;;2.96;76.16
10700;BME280;5401;41.986;21.452;2023-01-31T01:53:03;98264.09;;;2.82;75.52
10700;BME280;5401;41.986;21.452;2023-01-31T01:55:37;98289.38;;;2.76;75.60
10700;BME280;5401;41.986;21.452;2023-01-31T01:58:09;98301.91;;;2.90;75.64
10700;BME280;5401;41.986;21.452;2023-01-31T02:00:39;98293.16;;;2.82;75.42
10700;BME280;5401;41.986;21.452;2023-01-31T02:03:07;98295.00;;;2.89;75.90
10700;BME280;5401;41.986;21.452;2023-01-31T02:05:39;98278.94;;;2.90;75.41
10700;BME280;5401;41.986;21.452;2023-01-31T02:08:08;98276.97;;;2.92;76.14
10700;BME280;5401;41.986;21.452;2023-01-31T02:10:41;98256.81;;;2.83;76.29
10700;BME280;5401;41.986;21.452;2023-01-31T02:13:10;98284.06;;;3.00;76.30
10700;BME280;5401;41.986;21.452;2023-01-31T02:15:38;98301.25;;;3.04;75.46
10700;BME280;5401;41.986;21.452;2023-01-31T02:18:06;98306.69;;;3.02;75.79
10700;BME280;5401;41.986;21.452;2023-01-31T02:23:48;98313.16;;;3.00;76.16
10700;BME280;5401;41.986;21.452;2023-01-31T02:29:49;98309.53;;;2.93;76.07
10700;BME280;5401;41.986;21.452;2023-01-31T02:32:31;98310.34;;;2.93;75.30
10700;BME280;5401;41.986;21.452;2023-01-31T02:35:10;98303.75;;;2.89;75.30
10700;BME280;5401;41.986;21.452;2023-01-31T02:37:48;98308.22;;;2.81;75.33
10700;BME280;5401;41.986;21.452;2023-01-31T02:40:22;98306.69;;;2.79;75.85
10700;BME280;5401;41.986;21.452;2023-01-31T02:42:58;98327.88;;;2.71;75.90
10700;BME280;5401;41.986;21.452;2023-01-31T02:45:33;98327.22;;;2.61;76.11
10700;BME280;5401;41.986;21.452;2023-01-31T02:48:11;98327.69;;;2.41;75.50
10700;BME280;5401;41.986;21.452;2023-01-31T02:50:45;98329.94;;;2.28;76.42
10700;BME280;5401;41.986;21.452;2023-01-31T02:53:20;98325.78;;;2.17;75.83
10700;BME280;5401;41.986;21.452;2023-01-31T02:55:54;98326.94;;;2.15;76.88
10700;BME280;5401;41.986;21.452;2023-01-31T02:58:48;98314.06;;;2.12;76.43
10700;BME280;5401;41.986;21.452;2023-01-31T03:01:20;98336.25;;;2.35;76.88
10700;BME280;5401;41.986;21.452;2023-01-31T03:03:51;98336.94;;;2.45;77.26
10700;BME280;5401;41.986;21.452;2023-01-31T03:06:41;98333.28;;;2.53;76.95
10700;BME280;5401;41.986;21.452;2023-01-31T03:09:32;98336.91;;;2.60;76.96
10700;BME280;5401;41.986;21.452;2023-01-31T03:12:17;98347.34;;;2.62;76.65
10700;BME280;5401;41.986;21.452;2023-01-31T03:14:59;98354.97;;;2.65;76.30
10700;BME280;5401;41.986;21.452;2023-01-31T03:17:35;98352.13;;;2.66;76.94
10700;BME280;5401;41.986;21.452;2023-01-31T03:20:08;98348.81;;;2.72;76.37
10700;BME280;5401;41.986;21.452;2023-01-31T03:22:40;98354.13;;;2.72;76.90
10700;BME280;5401;41.986;21.452;2023-01-31T03:25:12;98350.81;;;2.70;76.11
10700;BME280;5401;41.986;21.452;2023-01-31T03:27:44;98357.41;;;2.58;76.42
10700;BME280;5401;41.986;21.452;2023-01-31T03:30:17;98354.94;;;2.57;76.89
10700;BME280;5401;41.986;21.452;2023-01-31T03:32:50;98349.66;;;2.57;76.83
10700;BME280;5401;41.986;21.452;2023-01-31T03:35:23;98350.31;;;2.59;76.66
10700;BME280;5401;41.986;21.452;2023-01-31T03:37:58;98353.94;;;2.66;76.46
10700;BME280;5401;41.986;21.452;2023-01-31T03:40:30;98355.78;;;2.73;77.26
10700;BME280;5401;41.986;21.452;2023-01-31T03:43:04;98357.59;;;2.81;77.16
10700;BME280;5401;41.986;21.452;2023-01-31T03:45:40;98367.34;;;2.88;76.49
10700;BME280;5401;41.986;21.452;2023-01-31T03:48:11;98367.50;;;2.94;76.97
10700;BME280;5401;41.986;21.452;2023-01-31T03:50:48;98366.03;;;3.00;76.75
10700;BME280;5401;41.986;21.452;2023-01-31T03:53:21;98379.91;;;3.02;77.15
10700;BME280;5401;41.986;21.452;2023-01-31T03:55:54;98391.16;;;3.04;76.34
10700;BME280;5401;41.986;21.452;2023-01-31T03:58:28;98386.19;;;3.09;76.76
10700;BME280;5401;41.986;21.452;2023-01-31T04:00:58;98391.47;;;3.09;76.14
10700;BME280;5401;41.986;21.452;2023-01-31T04:03:30;98397.25;;;3.12;76.27
10700;BME280;5401;41.986;21.452;2023-01-31T04:05:59;98390.16;;;3.20;76.93
10700;BME280;5401;41.986;21.452;2023-01-31T04:08:27;98397.91;;;3.30;76.29
10700;BME280;5401;41.986;21.452;2023-01-31T04:10:57;98399.56;;;3.39;76.53
10700;BME280;5401;41.986;21.452;2023-01-31T04:13:25;98400.38;;;3.47;75.76
10700;BME280;5401;41.986;21.452;2023-01-31T04:15:52;98396.91;;;3.54;75.83
10700;BME280;5401;41.986;21.452;2023-01-31T04:18:20;98387.09;;;3.63;75.75
10700;BME280;5401;41.986;21.452;2023-01-31T04:20:47;98393.56;;;3.68;76.10
10700;BME280;5401;41.986;21.452;2023-01-31T04:23:16;98395.53;;;3.74;75.56
10700;BME280;5401;41.986;21.452;2023-01-31T04:25:44;98396.84;;;3.78;75.75
10700;BME280;5401;41.986;21.452;2023-01-31T04:28:12;98413.03;;;3.83;75.47
10700;BME280;5401;41.986;21.452;2023-01-31T04:30:39;98408.25;;;3.87;75.17
10700;BME280;5401;41.986;21.452;2023-01-31T04:33:07;98411.53;;;3.89;75.37
10700;BME280;5401;41.986;21.452;2023-01-31T04:35:34;98415.66;;;3.91;74.81
10700;BME280;5401;41.986;21.452;2023-01-31T04:38:02;98414.69;;;3.92;75.22
10700;BME280;5401;41.986;21.452;2023-01-31T04:40:31;98426.09;;;3.92;75.25
10700;BME280;5401;41.986;21.452;2023-01-31T04:42:58;98411.03;;;3.93;75.38
10700;BME280;5401;41.986;21.452;2023-01-31T04:45:26;98419.97;;;3.92;75.01
10700;BME280;5401;41.986;21.452;2023-01-31T04:47:53;98422.63;;;3.92;74.99
10700;BME280;5401;41.986;21.452;2023-01-31T04:50:22;98409.41;;;3.84;74.83
10700;BME280;5401;41.986;21.452;2023-01-31T04:52:50;98433.03;;;3.93;75.16
10700;BME280;5401;41.986;21.452;2023-01-31T04:55:18;98411.06;;;3.77;75.39
10700;BME280;5401;41.986;21.452;2023-01-31T04:57:47;98429.41;;;3.94;75.62
10700;BME280;5401;41.986;21.452;2023-01-31T05:00:15;98439.84;;;3.96;75.90
10700;BME280;5401;41.986;21.452;2023-01-31T05:02:43;98448.75;;;3.95;75.44
10700;BME280;5401;41.986;21.452;2023-01-31T05:05:11;98447.78;;;3.96;75.82
10700;BME280;5401;41.986;21.452;2023-01-31T05:07:38;98454.88;;;3.95;75.50
10700;BME280;5401;41.986;21.452;2023-01-31T05:10:07;98451.41;;;3.95;75.92
10700;BME280;5401;41.986;21.452;2023-01-31T05:12:35;98445.94;;;3.96;76.13
10700;BME280;5401;41.986;21.452;2023-01-31T05:15:05;98433.03;;;3.93;75.88
10700;BME280;5401;41.986;21.452;2023-01-31T05:17:33;98442.13;;;3.99;75.56
10700;BME280;5401;41.986;21.452;2023-01-31T05:20:02;98442.94;;;3.99;75.78
10700;BME280;5401;41.986;21.452;2023-01-31T05:22:30;98449.72;;;4.02;75.64
10700;BME280;5401;41.986;21.452;2023-01-31T05:24:57;98447.06;;;4.02;76.11
10700;BME280;5401;41.986;21.452;2023-01-31T05:27:25;98440.63;;;4.04;75.88
10700;BME280;5401;41.986;21.452;2023-01-31T05:29:52;98438.00;;;4.04;76.36
10700;BME280;5401;41.986;21.452;2023-01-31T05:32:21;98443.94;;;4.06;76.06
10700;BME280;5401;41.986;21.452;2023-01-31T05:34:49;98441.09;;;4.08;76.33
10700;BME280;5401;41.986;21.452;2023-01-31T05:37:16;98443.44;;;4.11;76.81
10700;BME280;5401;41.986;21.452;2023-01-31T05:39:44;98441.28;;;4.14;76.85
10700;BME280;5401;41.986;21.452;2023-01-31T05:42:11;98435.97;;;4.14;76.10
10700;BME280;5401;41.986;21.452;2023-01-31T05:44:39;98429.50;;;4.17;76.44
10700;BME280;5401;41.986;21.452;2023-01-31T05:47:06;98444.22;;;4.19;76.36
10700;BME280;5401;41.986;21.452;2023-01-31T05:49:35;98448.19;;;4.23;76.58
10700;BME280;5401;41.986;21.452;2023-01-31T05:52:03;98453.13;;;4.26;76.57
10700;BME280;5401;41.986;21.452;2023-01-31T05:54:30;98451.13;;;4.28;76.50
10700;BME280;5401;41.986;21.452;2023-01-31T05:56:58;98448.31;;;4.29;75.86
10700;BME280;5401;41.986;21.452;2023-01-31T05:59:25;98439.72;;;4.27;76.30
10700;BME280;5401;41.986;21.452;2023-01-31T06:01:55;98442.69;;;4.32;76.45
10700;BME280;5401;41.986;21.452;2023-01-31T06:04:25;98443.50;;;4.33;76.00
10700;BME280;5401;41.986;21.452;2023-01-31T06:06:53;98438.03;;;4.34;75.95
10700;BME280;5401;41.986;21.452;2023-01-31T06:09:21;98443.81;;;4.38;76.11
10700;BME280;5401;41.986;21.452;2023-01-31T06:11:48;98431.56;;;4.37;76.17
10700;BME280;5401;41.986;21.452;2023-01-31T06:14:16;98430.22;;;4.41;76.03
10700;BME280;5401;41.986;21.452;2023-01-31T06:16:43;98428.88;;;4.45;75.95
10700;BME280;5401;41.986;21.452;2023-01-31T06:19:11;98429.19;;;4.50;75.51
10700;BME280;5401;41.986;21.452;2023-01-31T06:21:38;98426.22;;;4.45;75.77
10700;BME280;5401;41.986;21.452;2023-01-31T06:24:07;98438.56;;;4.60;75.47
10700;BME280;5401;41.986;21.452;2023-01-31T06:26:35;98440.53;;;4.66;75.23
10700;BME280;5401;41.986;21.452;2023-01-31T06:29:02;98442.97;;;4.75;75.26
10700;BME280;5401;41.986;21.452;2023-01-31T06:31:30;98442.22;;;4.89;75.08
10700;BME280;5401;41.986;21.452;2023-01-31T06:34:03;98443.13;;;5.04;74.77
10700;BME280;5401;41.986;21.452;2023-01-31T06:36:31;98442.41;;;5.32;74.47
10700;BME280;5401;41.986;21.452;2023-01-31T06:38:59;98431.13;;;5.74;74.00
10700;BME280;5401;41.986;21.452;2023-01-31T06:41:28;98442.88;;;5.94;73.58
10700;BME280;5401;41.986;21.452;2023-01-31T06:43:56;98424.72;;;5.98;72.92
10700;BME280;5401;41.986;21.452;2023-01-31T06:46:23;98403.44;;;5.83;72.49
10700;BME280;5401;41.986;21.452;2023-01-31T06:48:52;98419.47;;;5.90;72.43
10700;BME280;5401;41.986;21.452;2023-01-31T06:51:19;98414.28;;;5.82;72.09
10700;BME280;5401;41.986;21.452;2023-01-31T06:53:47;98431.84;;;5.83;72.09
10700;BME280;5401;41.986;21.452;2023-01-31T06:56:16;98421.41;;;5.81;72.18
10700;BME280;5401;41.986;21.452;2023-01-31T06:58:44;98424.91;;;5.82;72.17
10700;BME280;5401;41.986;21.452;2023-01-31T07:01:13;98424.38;;;5.86;72.03
10700;BME280;5401;41.986;21.452;2023-01-31T07:03:41;98421.31;;;5.89;72.03
10700;BME280;5401;41.986;21.452;2023-01-31T07:06:09;98424.44;;;5.93;71.58
10700;BME280;5401;41.986;21.452;2023-01-31T07:08:36;98408.78;;;5.98;71.72
10700;BME280;5401;41.986;21.452;2023-01-31T07:11:04;98426.94;;;6.08;71.59
10700;BME280;5401;41.986;21.452;2023-01-31T07:13:32;98435.56;;;6.10;71.04
10700;BME280;5401;41.986;21.452;2023-01-31T07:16:01;98433.16;;;6.15;71.22
10700;BME280;5401;41.986;21.452;2023-01-31T07:18:28;98411.16;;;6.07;71.12
10700;BME280;5401;41.986;21.452;2023-01-31T07:20:58;98433.72;;;6.25;70.69
10700;BME280;5401;41.986;21.452;2023-01-31T07:23:25;98437.00;;;6.27;70.56
10700;BME280;5401;41.986;21.452;2023-01-31T07:25:53;98438.28;;;6.31;70.52
10700;BME280;5401;41.986;21.452;2023-01-31T07:28:20;98440.22;;;6.37;70.35
10700;BME280;5401;41.986;21.452;2023-01-31T07:30:47;98416.38;;;6.29;70.20
10700;BME280;5401;41.986;21.452;2023-01-31T07:33:18;98440.69;;;6.40;70.38
10700;BME280;5401;41.986;21.452;2023-01-31T07:35:45;98455.44;;;6.57;69.64
10700;BME280;5401;41.986;21.452;2023-01-31T07:38:13;98455.22;;;6.73;69.65
10700;BME280;5401;41.986;21.452;2023-01-31T07:40:40;98451.16;;;6.91;69.90
10700;BME280;5401;41.986;21.452;2023-01-31T07:43:08;98449.91;;;7.08;69.21
10700;BME280;5401;41.986;21.452;2023-01-31T07:45:35;98458.22;;;7.19;69.28
10700;BME280;5401;41.986;21.452;2023-01-31T07:48:03;98456.56;;;7.39;69.02
10700;BME280;5401;41.986;21.452;2023-01-31T07:50:32;98460.69;;;7.62;68.20
10700;BME280;5401;41.986;21.452;2023-01-31T07:53:00;98464.22;;;7.90;68.07
10700;BME280;5401;41.986;21.452;2023-01-31T07:55:28;98457.91;;;8.18;68.51
10700;BME280;5401;41.986;21.452;2023-01-31T07:57:55;98455.16;;;8.39;67.82
10700;BME280;5401;41.986;21.452;2023-01-31T08:00:23;98463.06;;;8.59;66.90
10700;BME280;5401;41.986;21.452;2023-01-31T08:03:23;98453.50;;;8.71;66.81
10700;BME280;5401;41.986;21.452;2023-01-31T08:06:06;98455.56;;;8.76;66.00
10700;BME280;5401;41.986;21.452;2023-01-31T08:08:35;98454.94;;;8.74;65.76
10700;BME280;5401;41.986;21.452;2023-01-31T08:11:02;98454.50;;;8.70;66.78
10700;BME280;5401;41.986;21.452;2023-01-31T08:13:31;98462.09;;;8.67;65.75
10700;BME280;5401;41.986;21.452;2023-01-31T08:15:58;98452.63;;;8.64;65.19
10700;BME280;5401;41.986;21.452;2023-01-31T08:18:26;98452.22;;;8.67;66.24
10700;BME280;5401;41.986;21.452;2023-01-31T08:20:55;98446.72;;;8.69;64.98
10700;BME280;5401;41.986;21.452;2023-01-31T08:23:25;98441.72;;;8.59;66.12
10700;BME280;5401;41.986;21.452;2023-01-31T08:25:58;98447.09;;;8.66;65.29
10700;BME280;5401;41.986;21.452;2023-01-31T08:28:26;98445.88;;;8.68;65.33
10700;BME280;5401;41.986;21.452;2023-01-31T08:30:54;98442.63;;;8.73;65.00
10700;BME280;5401;41.986;21.452;2023-01-31T08:33:21;98439.56;;;8.82;64.62
10700;BME280;5401;41.986;21.452;2023-01-31T08:35:49;98433.50;;;9.01;64.78
10700;BME280;5401;41.986;21.452;2023-01-31T08:38:16;98430.66;;;9.15;64.38
10700;BME280;5401;41.986;21.452;2023-01-31T08:40:46;98444.66;;;9.24;64.26
10700;BME280;5401;41.986;21.452;2023-01-31T08:43:15;98446.09;;;9.26;65.01
10700;BME280;5401;41.986;21.452;2023-01-31T08:45:44;98438.50;;;9.23;63.96
10700;BME280;5401;41.986;21.452;2023-01-31T08:48:11;98434.56;;;9.19;64.58
10700;BME280;5401;41.986;21.452;2023-01-31T08:50:39;98429.84;;;9.21;64.30
10700;BME280;5401;41.986;21.452;2023-01-31T08:53:08;98440.31;;;9.29;63.86
10700;BME280;5401;41.986;21.452;2023-01-31T08:55:35;98437.88;;;9.34;64.01
10700;BME280;5401;41.986;21.452;2023-01-31T08:58:05;98439.13;;;9.44;63.68
10700;BME280;5401;41.986;21.452;2023-01-31T09:00:32;98431.72;;;9.46;63.84
10700;BME280;5401;41.986;21.452;2023-01-31T09:03:00;98433.97;;;9.49;62.77
10700;BME280;5401;41.986;21.452;2023-01-31T09:05:28;98438.13;;;9.58;63.35
10700;BME280;5401;41.986;21.452;2023-01-31T09:07:58;98440.78;;;9.64;62.24
10700;BME280;5401;41.986;21.452;2023-01-31T09:10:25;98451.91;;;9.68;62.69
10700;BME280;5401;41.986;21.452;2023-01-31T09:12:53;98447.19;;;9.70;62.23
10700;BME280;5401;41.986;21.452;2023-01-31T09:15:21;98450.06;;;9.68;61.95
10700;BME280;5401;41.986;21.452;2023-01-31T09:17:49;98459.31;;;9.72;62.42
10700;BME280;5401;41.986;21.452;2023-01-31T09:20:16;98458.69;;;9.70;62.07
10700;BME280;5401;41.986;21.452;2023-01-31T09:22:44;98462.19;;;9.71;61.65
10700;BME280;5401;41.986;21.452;2023-01-31T09:25:11;98455.22;;;9.70;62.32
10700;BME280;5401;41.986;21.452;2023-01-31T09:27:39;98398.81;;;9.26;61.68
10700;BME280;5401;41.986;21.452;2023-01-31T09:30:08;98460.94;;;9.67;61.97
10700;BME280;5401;41.986;21.452;2023-01-31T09:32:37;98449.03;;;9.82;61.29
10700;BME280;5401;41.986;21.452;2023-01-31T09:35:07;98450.50;;;10.10;61.26
10700;BME280;5401;41.986;21.452;2023-01-31T09:37:34;98448.19;;;10.39;61.01
10700;BME280;5401;41.986;21.452;2023-01-31T09:40:03;98444.84;;;10.63;61.10
10700;BME280;5401;41.986;21.452;2023-01-31T09:42:34;98424.44;;;10.68;60.75
10700;BME280;5401;41.986;21.452;2023-01-31T09:45:05;98444.59;;;10.77;60.39
10700;BME280;5401;41.986;21.452;2023-01-31T09:47:36;98442.13;;;10.69;60.21
10700;BME280;5401;41.986;21.452;2023-01-31T09:50:15;98439.50;;;10.57;60.19
10700;BME280;5401;41.986;21.452;2023-01-31T09:52:44;98430.06;;;10.41;60.26
10700;BME280;5401;41.986;21.452;2023-01-31T09:55:15;98433.41;;;10.31;60.19
10700;BME280;5401;41.986;21.452;2023-01-31T09:57:47;98440.81;;;10.16;59.82
10700;BME280;5401;41.986;21.452;2023-01-31T10:00:22;98434.47;;;10.04;59.94
10700;BME280;5401;41.986;21.452;2023-01-31T10:03:04;98420.06;;;9.92;60.36
10700;BME280;5401;41.986;21.452;2023-01-31T10:05:46;98429.50;;;9.82;60.07
10700;BME280;5401;41.986;21.452;2023-01-31T10:08:20;98426.19;;;9.73;60.05
10700;BME280;5401;41.986;21.452;2023-01-31T10:10:54;98440.59;;;9.66;59.87
10700;BME280;5401;41.986;21.452;2023-01-31T10:13:27;98437.94;;;9.60;60.06
10700;BME280;5401;41.986;21.452;2023-01-31T10:15:59;98427.44;;;9.52;60.16
10700;BME280;5401;41.986;21.452;2023-01-31T10:18:33;98424.34;;;9.42;60.88
10700;BME280;5401;41.986;21.452;2023-01-31T10:21:06;98417.94;;;9.30;59.94
10700;BME280;5401;41.986;21.452;2023-01-31T10:23:39;98408.25;;;9.23;60.26
10700;BME280;5401;41.986;21.452;2023-01-31T10:26:10;98422.03;;;9.26;60.89
10700;BME280;5401;41.986;21.452;2023-01-31T10:28:43;98420.41;;;9.31;60.96
10700;BME280;5401;41.986;21.452;2023-01-31T10:31:23;98405.00;;;9.33;60.57
10700;BME280;5401;41.986;21.452;2023-01-31T10:33:56;98405.22;;;9.38;59.93
10700;BME280;5401;41.986;21.452;2023-01-31T10:36:31;98401.91;;;9.49;59.75
10700;BME280;5401;41.986;21.452;2023-01-31T10:39:03;98392.69;;;9.45;59.50
10700;BME280;5401;41.986;21.452;2023-01-31T10:41:44;98390.63;;;9.54;60.10
10700;BME280;5401;41.986;21.452;2023-01-31T10:44:21;98391.03;;;9.57;59.78
10700;BME280;5401;41.986;21.452;2023-01-31T10:46:51;98398.84;;;9.59;59.95
10700;BME280;5401;41.986;21.452;2023-01-31T10:49:23;98401.09;;;9.55;59.62
10700;BME280;5401;41.986;21.452;2023-01-31T10:52:13;98398.22;;;9.57;59.52
10700;BME280;5401;41.986;21.452;2023-01-31T10:54:51;98401.53;;;9.59;59.00
10700;BME280;5401;41.986;21.452;2023-01-31T10:57:20;98379.94;;;9.60;58.78
10700;BME280;5401;41.986;21.452;2023-01-31T10:59:50;98393.13;;;9.61;59.07
10700;BME280;5401;41.986;21.452;2023-01-31T11:02:21;98392.69;;;9.58;58.74
10700;BME280;5401;41.986;21.452;2023-01-31T11:04:51;98380.75;;;9.60;59.08
10700;BME280;5401;41.986;21.452;2023-01-31T11:07:20;98391.88;;;9.64;59.54
10700;BME280;5401;41.986;21.452;2023-01-31T11:09:50;98372.94;;;9.59;58.81
10700;BME280;5401;41.986;21.452;2023-01-31T11:12:20;98388.56;;;9.49;59.36
10700;BME280;5401;41.986;21.452;2023-01-31T11:15:04;98380.53;;;9.30;59.55
10700;BME280;5401;41.986;21.452;2023-01-31T11:17:35;98372.72;;;9.16;58.62
10700;BME280;5401;41.986;21.452;2023-01-31T11:20:04;98381.34;;;9.11;58.72
10700;BME280;5401;41.986;21.452;2023-01-31T11:22:37;98371.47;;;9.18;59.75
10700;BME280;5401;41.986;21.452;2023-01-31T11:25:05;98376.00;;;9.11;59.04
10700;BME280;5401;41.986;21.452;2023-01-31T11:27:37;98391.16;;;9.04;59.20
10700;BME280;5401;41.986;21.452;2023-01-31T11:30:19;98386.88;;;9.03;59.65
10700;BME280;5401;41.986;21.452;2023-01-31T11:32:48;98384.59;;;9.00;58.97
10700;BME280;5401;41.986;21.452;2023-01-31T11:35:24;98368.56;;;8.94;59.11
10700;BME280;5401;41.986;21.452;2023-01-31T11:37:56;98371.84;;;8.89;59.44
10700;BME280;5401;41.986;21.452;2023-01-31T11:40:29;98358.25;;;8.85;59.14
10700;BME280;5401;41.986;21.452;2023-01-31T11:42:59;98373.50;;;9.03;59.12
10700;BME280;5401;41.986;21.452;2023-01-31T11:45:29;98375.38;;;9.09;59.17
10700;BME280;5401;41.986;21.452;2023-01-31T11:48:03;98375.56;;;9.08;58.88
10700;BME280;5401;41.986;21.452;2023-01-31T11:50:35;98368.78;;;9.05;59.61
10700;BME280;5401;41.986;21.452;2023-01-31T11:53:16;98376.78;;;8.99;59.71
10700;BME280;5401;41.986;21.452;2023-01-31T11:55:45;98375.75;;;8.93;59.60
10700;BME280;5401;41.986;21.452;2023-01-31T11:58:18;98372.44;;;8.85;59.68
10700;BME280;5401;41.986;21.452;2023-01-31T12:00:54;98361.94;;;8.77;59.32
10700;BME280;5401;41.986;21.452;2023-01-31T12:03:23;98362.13;;;8.76;59.02
10700;BME280;5401;41.986;21.452;2023-01-31T12:05:59;98380.84;;;8.82;59.46
10700;BME280;5401;41.986;21.452;2023-01-31T12:08:30;98376.34;;;8.89;59.58
10700;BME280;5401;41.986;21.452;2023-01-31T12:10:58;98369.59;;;8.93;58.65
10700;BME280;5401;41.986;21.452;2023-01-31T12:13:29;98384.38;;;9.02;58.78
10700;BME280;5401;41.986;21.452;2023-01-31T12:15:59;98361.22;;;9.15;59.24
10700;BME280;5401;41.986;21.452;2023-01-31T12:18:43;98370.44;;;9.13;58.46
10700;BME280;5401;41.986;21.452;2023-01-31T12:21:27;98366.75;;;9.07;58.28
10700;BME280;5401;41.986;21.452;2023-01-31T12:24:06;98368.19;;;9.03;58.43
10700;BME280;5401;41.986;21.452;2023-01-31T12:26:44;98377.00;;;9.04;58.69
10700;BME280;5401;41.986;21.452;2023-01-31T12:29:28;98376.81;;;9.05;59.31
10700;BME280;5401;41.986;21.452;2023-01-31T12:32:11;98370.41;;;9.00;58.96
10700;BME280;5401;41.986;21.452;2023-01-31T12:34:58;98385.00;;;9.04;58.61
10700;BME280;5401;41.986;21.452;2023-01-31T12:37:39;98375.16;;;9.04;59.54
10700;BME280;5401;41.986;21.452;2023-01-31T12:40:29;98372.28;;;9.06;58.66
10700;BME280;5401;41.986;21.452;2023-01-31T12:43:01;98372.47;;;9.11;59.25
10700;BME280;5401;41.986;21.452;2023-01-31T12:45:48;98372.53;;;9.30;59.13
10700;BME280;5401;41.986;21.452;2023-01-31T12:48:36;98376.66;;;9.52;58.32
10700;BME280;5401;41.986;21.452;2023-01-31T12:51:15;98361.44;;;9.65;58.21
10700;BME280;5401;41.986;21.452;2023-01-31T12:53:52;98356.50;;;9.75;58.30
10700;BME280;5401;41.986;21.452;2023-01-31T12:56:36;98364.09;;;10.03;57.46
10700;BME280;5401;41.986;21.452;2023-01-31T12:59:19;98376.59;;;10.29;57.40
10700;BME280;5401;41.986;21.452;2023-01-31T13:01:54;98366.22;;;10.51;57.48
10700;BME280;5401;41.986;21.452;2023-01-31T13:04:32;98357.06;;;10.71;56.63
10700;BME280;5401;41.986;21.452;2023-01-31T13:07:06;98350.47;;;10.74;56.60
10700;BME280;5401;41.986;21.452;2023-01-31T13:09:36;98359.75;;;10.71;56.55
10700;BME280;5401;41.986;21.452;2023-01-31T13:12:08;98366.81;;;10.60;56.20
10700;BME280;5401;41.986;21.452;2023-01-31T13:14:41;98371.81;;;10.43;56.29
10700;BME280;5401;41.986;21.452;2023-01-31T13:17:12;98373.34;;;10.20;56.47
10700;BME280;5401;41.986;21.452;2023-01-31T13:19:44;98379.13;;;9.98;56.54
10700;BME280;5401;41.986;21.452;2023-01-31T13:22:16;98403.78;;;9.55;57.22
10700;BME280;5401;41.986;21.452;2023-01-31T13:24:47;98404.38;;;9.25;57.12
10700;BME280;5401;41.986;21.452;2023-01-31T13:27:23;98424.03;;;9.05;57.34
10700;BME280;5401;41.986;21.452;2023-01-31T13:29:58;98436.88;;;8.76;57.65
10700;BME280;5401;41.986;21.452;2023-01-31T13:32:29;98435.28;;;8.48;57.62
10700;BME280;5401;41.986;21.452;2023-01-31T13:35:02;98426.09;;;8.17;58.80
10700;BME280;5401;41.986;21.452;2023-01-31T13:37:35;98432.09;;;7.98;58.67